Time;durP1;ratioP1;P1;durP2;ratioP2;P2;SDS_P1;SDS_P2;PMS_P1;PMS_P2;Temp;Humidity;BMP_temperature;BMP_pressure;BME280_temperature;BME280_humidity;BME280_pressure;Samples;Min_cycle;Max_cycle;Signal;HPM_P1;HPM_P2
2021/03/31 00:01:15;;;;;;;0.13;0.13;;;17.60;62.80;;;;;;4197769;28;20064;-44
2021/03/31 00:03:37;;;;;;;0.00;0.00;;;17.60;62.80;;;;;;4197924;28;20491;-42
2021/03/31 00:05:57;;;;;;;0.00;0.00;;;17.60;62.80;;;;;;4196694;28;20049;-46
2021/03/31 00:08:18;;;;;;;0.73;0.73;;;17.50;62.70;;;;;;4197661;28;20052;-45
2021/03/31 00:10:43;;;;;;;0.55;0.55;;;17.50;62.80;;;;;;4197917;28;20064;-43
2021/03/31 00:13:04;;;;;;;0.08;0.08;;;17.50;62.80;;;;;;4197835;28;20414;-44
2021/03/31 00:15:26;;;;;;;;;;;17.50;63.00;;;;;;4198126;28;20059;-43
2021/03/31 00:17:56;;;;;;;0.00;0.00;;;17.50;63.10;;;;;;4197729;28;20019;-42
2021/03/31 00:20:18;;;;;;;0.10;0.10;;;17.50;63.10;;;;;;4197555;28;20423;-43
2021/03/31 00:22:39;;;;;;;0.17;0.17;;;17.50;63.20;;;;;;4197581;28;20235;-43
2021/03/31 00:25:00;;;;;;;2.08;0.73;;;17.40;63.30;;;;;;4181230;28;20147;-42
2021/03/31 00:27:20;;;;;;;0.10;0.10;;;17.50;63.40;;;;;;4181020;28;20061;-44
2021/03/31 00:29:41;;;;;;;0.00;0.00;;;17.40;63.40;;;;;;4180942;28;20419;-43
2021/03/31 00:32:05;;;;;;;0.20;0.20;;;17.50;63.50;;;;;;4181039;28;20049;-44
2021/03/31 00:34:26;;;;;;;0.10;0.10;;;17.40;63.50;;;;;;4196260;28;20056;-43
2021/03/31 00:36:47;;;;;;;3.40;1.20;;;17.40;63.60;;;;;;4197275;28;20071;-43
2021/03/31 00:39:08;;;;;;;1.00;0.70;;;17.40;63.60;;;;;;4197232;28;20122;-42
2021/03/31 00:41:29;;;;;;;;;;;17.40;63.60;;;;;;4197620;28;20574;-43
2021/03/31 00:43:50;;;;;;;0.50;0.50;;;17.40;63.60;;;;;;4197291;28;19930;-42
2021/03/31 00:46:11;;;;;;;0.15;0.15;;;17.40;63.60;;;;;;4197283;28;20139;-43
2021/03/31 00:48:33;;;;;;;;;;;17.40;63.70;;;;;;4197599;28;20106;-45
2021/03/31 00:50:56;;;;;;;0.28;0.28;;;17.40;63.80;;;;;;4197055;28;20390;-42
2021/03/31 00:53:19;;;;;;;0.10;0.10;;;17.40;63.80;;;;;;4184743;28;20079;-43
2021/03/31 00:55:41;;;;;;;0.00;0.00;;;17.40;63.70;;;;;;4197221;28;20061;-42
2021/03/31 00:58:03;;;;;;;0.63;0.47;;;17.40;63.80;;;;;;4196990;28;20525;-45
2021/03/31 01:00:24;;;;;;;1.23;1.17;;;17.30;63.80;;;;;;4196481;28;20044;-43
2021/03/31 01:02:45;;;;;;;0.15;0.15;;;17.30;63.80;;;;;;4196620;28;20056;-42
2021/03/31 01:05:08;;;;;;;;;;;17.30;63.80;;;;;;4180973;28;20491;-42
2021/03/31 01:07:29;;;;;;;0.98;0.98;;;17.30;63.90;;;;;;4180387;28;19931;-43
2021/03/31 01:09:52;;;;;;;0.00;0.00;;;17.30;63.80;;;;;;4180353;28;20052;-42
2021/03/31 01:12:24;;;;;;;0.60;0.60;;;17.30;63.90;;;;;;4180242;28;20137;-43
2021/03/31 01:14:56;;;;;;;0.75;0.75;;;17.30;64.90;;;;;;4180150;28;20053;-43
2021/03/31 01:17:24;;;;;;;0.70;0.70;;;17.30;64.80;;;;;;4187352;28;20477;-43
2021/03/31 01:20:01;;;;;;;0.40;0.40;;;17.30;64.00;;;;;;4196675;28;20052;-42
2021/03/31 01:23:03;;;;;;;2.25;1.38;;;17.30;64.90;;;;;;4196660;28;20055;-42
2021/03/31 01:25:35;;;;;;;0.68;0.52;;;17.20;64.10;;;;;;4171996;28;20485;-43
2021/03/31 01:28:10;;;;;;;0.85;0.85;;;17.20;64.10;;;;;;4196625;28;20536;-44
2021/03/31 01:30:39;;;;;;;0.00;0.00;;;17.20;64.20;;;;;;4181833;28;20103;-43
2021/03/31 01:33:23;;;;;;;0.00;0.00;;;17.20;64.20;;;;;;4196160;28;20053;-50
2021/03/31 01:35:44;;;;;;;0.63;0.63;;;17.20;64.00;;;;;;4196412;28;20055;-45
2021/03/31 01:38:08;;;;;;;0.15;0.15;;;17.10;64.20;;;;;;4184899;28;20057;-52
2021/03/31 01:40:30;;;;;;;0.10;0.10;;;17.20;64.30;;;;;;4196363;28;20045;-43
2021/03/31 01:42:56;;;;;;;0.88;0.88;;;17.20;64.50;;;;;;4196041;28;20045;-46
2021/03/31 01:45:21;;;;;;;0.03;0.03;;;17.20;64.70;;;;;;4196417;28;20052;-44
2021/03/31 01:47:46;;;;;;;0.00;0.00;;;17.10;64.70;;;;;;4196264;28;20055;-45
2021/03/31 01:50:09;;;;;;;0.60;0.60;;;17.10;64.80;;;;;;4196130;28;20052;-43
2021/03/31 01:52:31;;;;;;;1.02;0.85;;;17.10;64.90;;;;;;4195959;28;20059;-44
2021/03/31 01:54:53;;;;;;;0.00;0.00;;;17.10;64.90;;;;;;4179851;28;20083;-45
2021/03/31 01:57:15;;;;;;;0.93;0.90;;;17.10;64.90;;;;;;4181482;28;20056;-44
2021/03/31 01:59:37;;;;;;;0.52;0.52;;;17.10;64.90;;;;;;4196209;28;20056;-46
2021/03/31 02:01:59;;;;;;;0.08;0.08;;;17.10;64.90;;;;;;4195467;28;20543;-44
2021/03/31 02:04:22;;;;;;;0.30;0.30;;;17.10;64.90;;;;;;4183156;28;20048;-45
2021/03/31 02:06:44;;;;;;;1.08;1.05;;;17.10;65.00;;;;;;4195755;28;20136;-47
2021/03/31 02:09:06;;;;;;;;;;;17.10;64.90;;;;;;4196051;28;20054;-44
2021/03/31 02:11:28;;;;;;;0.08;0.08;;;17.00;64.90;;;;;;4195912;28;19959;-44
2021/03/31 02:13:50;;;;;;;0.00;0.00;;;17.00;64.90;;;;;;4195972;28;20547;-50
2021/03/31 02:16:11;;;;;;;7.88;1.23;;;17.00;65.00;;;;;;4195699;28;20383;-44
2021/03/31 02:18:33;;;;;;;;;;;17.00;65.00;;;;;;4195175;28;20457;-42
2021/03/31 02:20:55;;;;;;;0.10;0.10;;;17.00;65.00;;;;;;4195576;28;20424;-44
2021/03/31 02:23:16;;;;;;;0.82;0.82;;;17.00;65.00;;;;;;4195637;28;20139;-47
2021/03/31 02:25:38;;;;;;;0.03;0.03;;;17.00;65.00;;;;;;4195823;28;20060;-45
2021/03/31 02:28:00;;;;;;;0.85;0.85;;;17.00;65.00;;;;;;4195672;28;20113;-43
2021/03/31 02:30:23;;;;;;;0.65;0.65;;;17.00;65.00;;;;;;4195864;28;20127;-44
2021/03/31 02:32:48;;;;;;;0.30;0.30;;;17.00;65.00;;;;;;4195761;28;20053;-47
2021/03/31 02:35:10;;;;;;;0.20;0.20;;;17.00;65.00;;;;;;4195330;28;20498;-43
2021/03/31 02:37:32;;;;;;;0.80;0.80;;;17.00;65.00;;;;;;4195267;28;20829;-42
2021/03/31 02:39:55;;;;;;;0.10;0.10;;;16.90;64.90;;;;;;4195690;28;20546;-43
2021/03/31 02:42:20;;;;;;;0.32;0.32;;;16.90;65.00;;;;;;4195759;28;20510;-43
2021/03/31 02:44:44;;;;;;;0.00;0.00;;;16.90;65.90;;;;;;4195665;28;20056;-43
2021/03/31 02:47:06;;;;;;;0.32;0.32;;;16.90;65.00;;;;;;4195623;28;20053;-43
2021/03/31 02:49:30;;;;;;;0.00;0.00;;;16.90;65.00;;;;;;4195200;28;20503;-43
2021/03/31 02:51:52;;;;;;;0.95;0.95;;;16.90;65.10;;;;;;4195649;28;20106;-42
2021/03/31 02:54:13;;;;;;;0.30;0.30;;;16.90;65.00;;;;;;4195503;28;20052;-42
2021/03/31 02:56:35;;;;;;;0.20;0.20;;;16.90;65.00;;;;;;4195148;28;20059;-42
2021/03/31 02:59:00;;;;;;;1.10;1.00;;;16.80;65.10;;;;;;4195331;28;20078;-42
2021/03/31 03:01:21;;;;;;;0.10;0.10;;;16.80;65.10;;;;;;4195423;28;20048;-44
2021/03/31 03:03:43;;;;;;;0.15;0.15;;;16.80;65.10;;;;;;4195310;28;20187;-42
2021/03/31 03:06:05;;;;;;;0.57;0.57;;;16.80;65.10;;;;;;4195589;28;20080;-42
2021/03/31 03:08:27;;;;;;;0.00;0.00;;;16.80;65.10;;;;;;4189740;28;20041;-43
2021/03/31 03:10:48;;;;;;;1.10;0.98;;;16.80;65.20;;;;;;4195244;28;20061;-41
2021/03/31 03:13:09;;;;;;;0.88;0.88;;;16.80;65.20;;;;;;4194196;28;20052;-42
2021/03/31 03:15:32;;;;;;;0.20;0.20;;;16.80;65.30;;;;;;4195500;28;20056;-42
2021/03/31 03:17:53;;;;;;;1.65;0.43;;;16.80;65.30;;;;;;4195244;28;20068;-43
2021/03/31 03:20:15;;;;;;;0.80;0.63;;;16.80;65.30;;;;;;4195360;28;20487;-42
2021/03/31 03:22:38;;;;;;;0.05;0.05;;;16.80;65.30;;;;;;4195090;28;20098;-42
2021/03/31 03:25:00;;;;;;;0.93;0.93;;;16.70;65.30;;;;;;4197683;28;20145;-44
2021/03/31 03:27:22;;;;;;;0.00;0.00;;;16.70;65.40;;;;;;4197406;28;20060;-42
2021/03/31 03:29:45;;;;;;;1.60;1.55;;;16.70;65.30;;;;;;4181897;28;20110;-45
2021/03/31 03:32:08;;;;;;;0.40;0.40;;;16.70;65.40;;;;;;4185579;28;20055;-42
2021/03/31 03:34:30;;;;;;;0.10;0.10;;;16.70;65.40;;;;;;4198490;28;20094;-42
2021/03/31 03:36:51;;;;;;;6.82;0.65;;;16.70;65.40;;;;;;4198268;28;20117;-43
2021/03/31 03:39:13;;;;;;;0.40;0.40;;;16.70;65.50;;;;;;4181795;28;20057;-42
2021/03/31 03:41:34;;;;;;;0.00;0.00;;;16.60;65.40;;;;;;4181785;28;20052;-47
2021/03/31 03:43:57;;;;;;;0.00;0.00;;;16.60;66.40;;;;;;4184722;28;20828;-50
2021/03/31 03:46:21;;;;;;;0.00;0.00;;;16.60;65.60;;;;;;4198262;28;20052;-42
2021/03/31 03:48:43;;;;;;;0.30;0.30;;;16.60;65.60;;;;;;4198206;28;20088;-43
2021/03/31 03:51:05;;;;;;;0.43;0.43;;;16.60;65.60;;;;;;4198032;28;20518;-42
2021/03/31 03:53:27;;;;;;;0.05;0.05;;;16.60;65.70;;;;;;4197891;28;20049;-42
2021/03/31 03:55:49;;;;;;;0.75;0.75;;;16.60;65.70;;;;;;4181500;28;20077;-42
2021/03/31 03:58:10;;;;;;;0.40;0.40;;;16.60;65.70;;;;;;4186769;28;20422;-41
2021/03/31 04:00:31;;;;;;;0.65;0.65;;;16.60;65.70;;;;;;4198001;28;20057;-42
2021/03/31 04:02:53;;;;;;;0.30;0.30;;;16.60;65.70;;;;;;4197775;28;20171;-42
2021/03/31 04:05:15;;;;;;;0.00;0.00;;;16.60;65.90;;;;;;4197847;28;20079;-42
2021/03/31 04:07:37;;;;;;;0.30;0.30;;;16.50;65.80;;;;;;4187178;28;20048;-42
2021/03/31 04:10:00;;;;;;;0.47;0.47;;;16.60;65.90;;;;;;4197924;28;20051;-42
2021/03/31 04:12:22;;;;;;;2.25;1.38;;;16.50;65.90;;;;;;4197852;28;20049;-43
2021/03/31 04:14:45;;;;;;;0.60;0.60;;;16.50;65.90;;;;;;4197740;28;20049;-45
2021/03/31 04:17:07;;;;;;;0.25;0.25;;;16.50;65.90;;;;;;4197678;28;20074;-45
2021/03/31 04:19:30;;;;;;;0.20;0.20;;;16.60;65.90;;;;;;4197395;28;20511;-45
2021/03/31 04:21:52;;;;;;;0.08;0.08;;;16.50;65.90;;;;;;4197532;28;20063;-43
2021/03/31 04:24:14;;;;;;;0.17;0.17;;;16.50;65.90;;;;;;4181114;28;20056;-42
2021/03/31 04:26:37;;;;;;;0.60;0.60;;;16.50;65.90;;;;;;4181056;28;20519;-43
2021/03/31 04:28:59;;;;;;;0.00;0.00;;;16.50;66.00;;;;;;4195693;28;20048;-43
2021/03/31 04:31:22;;;;;;;0.75;0.75;;;16.50;66.00;;;;;;4197371;28;20580;-42
2021/03/31 04:33:42;;;;;;;0.00;0.00;;;16.40;66.00;;;;;;4197220;28;20076;-43
2021/03/31 04:36:05;;;;;;;0.25;0.25;;;16.40;65.90;;;;;;4196211;28;20094;-43
2021/03/31 04:38:27;;;;;;;0.43;0.43;;;16.40;65.90;;;;;;4197167;28;20483;-43
2021/03/31 04:40:55;;;;;;;0.80;0.80;;;16.40;65.90;;;;;;4197118;28;20135;-43
2021/03/31 04:43:16;;;;;;;0.10;0.10;;;16.40;65.90;;;;;;4197468;28;20064;-43
2021/03/31 04:45:37;;;;;;;0.20;0.20;;;16.40;65.80;;;;;;4197249;28;20076;-46
2021/03/31 04:47:59;;;;;;;0.65;0.65;;;16.40;65.80;;;;;;4197003;28;20049;-43
2021/03/31 04:50:23;;;;;;;0.75;0.75;;;16.40;65.80;;;;;;4197173;28;20159;-43
2021/03/31 04:52:44;;;;;;;1.23;1.23;;;16.30;65.70;;;;;;4196948;28;20090;-43
2021/03/31 04:55:07;;;;;;;;;;;16.30;65.70;;;;;;4197455;28;20052;-42
2021/03/31 04:57:28;;;;;;;0.88;0.88;;;16.30;65.70;;;;;;4196839;28;19920;-42
2021/03/31 04:59:49;;;;;;;;;;;16.30;65.70;;;;;;4197223;28;20059;-43
2021/03/31 05:02:11;;;;;;;5.70;1.10;;;16.30;65.80;;;;;;4196939;28;19932;-42
2021/03/31 05:04:33;;;;;;;0.75;0.75;;;16.30;66.70;;;;;;4196979;28;20454;-42
2021/03/31 05:06:54;;;;;;;0.00;0.00;;;16.30;66.80;;;;;;4196551;28;20052;-43
2021/03/31 05:09:15;;;;;;;0.10;0.10;;;16.30;65.90;;;;;;4196870;28;20056;-43
2021/03/31 05:11:37;;;;;;;0.22;0.22;;;16.30;65.90;;;;;;4196961;28;20079;-44
2021/03/31 05:14:00;;;;;;;1.08;1.00;;;16.20;65.80;;;;;;4196525;28;20055;-43
2021/03/31 05:16:20;;;;;;;0.43;0.43;;;16.20;65.80;;;;;;4196866;28;20062;-43
2021/03/31 05:18:42;;;;;;;0.10;0.10;;;16.30;65.90;;;;;;4196734;28;20110;-43
2021/03/31 05:21:03;;;;;;;0.98;0.63;;;16.20;65.90;;;;;;4196615;28;20110;-44
2021/03/31 05:23:24;;;;;;;0.30;0.30;;;16.20;66.20;;;;;;4196561;28;20414;-44
2021/03/31 05:25:45;;;;;;;1.88;1.77;;;16.20;66.50;;;;;;4196436;28;20056;-43
2021/03/31 05:28:07;;;;;;;1.10;1.03;;;16.20;66.60;;;;;;4196429;28;20079;-42
2021/03/31 05:30:28;;;;;;;0.00;0.00;;;16.30;67.60;;;;;;4196210;28;20338;-45
2021/03/31 05:32:49;;;;;;;0.15;0.15;;;16.30;67.60;;;;;;4195947;28;20045;-44
2021/03/31 05:35:11;;;;;;;0.77;0.77;;;16.30;67.30;;;;;;4195960;28;20056;-45
2021/03/31 05:37:32;;;;;;;0.90;0.50;;;16.30;66.80;;;;;;4195737;28;20132;-45
2021/03/31 05:39:53;;;;;;;0.10;0.10;;;16.30;66.40;;;;;;4196477;28;20424;-46
2021/03/31 05:42:15;;;;;;;0.00;0.00;;;16.30;66.10;;;;;;4195768;28;20129;-45
2021/03/31 05:44:38;;;;;;;1.25;0.77;;;16.30;65.90;;;;;;4196505;28;20501;-43
2021/03/31 05:47:00;;;;;;;0.00;0.00;;;16.30;65.80;;;;;;4196104;28;20052;-51
2021/03/31 05:49:21;;;;;;;0.38;0.38;;;16.20;65.60;;;;;;4196348;28;20490;-46
2021/03/31 05:51:42;;;;;;;0.35;0.35;;;16.20;65.50;;;;;;4196009;28;20060;-46
2021/03/31 05:54:03;;;;;;;0.28;0.28;;;16.20;65.30;;;;;;4196282;28;20052;-45
2021/03/31 05:56:24;;;;;;;0.10;0.10;;;16.20;65.30;;;;;;4195686;28;20064;-48
2021/03/31 05:58:45;;;;;;;0.25;0.25;;;16.10;65.10;;;;;;4196359;28;20548;-48
2021/03/31 06:01:08;;;;;;;1.73;1.63;;;16.20;65.10;;;;;;4195857;28;20060;-54
2021/03/31 06:03:29;;;;;;;0.30;0.30;;;16.10;65.00;;;;;;4162785;28;20046;-48
2021/03/31 06:05:50;;;;;;;1.25;1.25;;;16.10;65.80;;;;;;4154605;28;20053;-43
2021/03/31 06:08:11;;;;;;;2.00;0.80;;;16.10;64.80;;;;;;4154223;28;20061;-43
2021/03/31 06:10:32;;;;;;;1.08;1.08;;;16.10;64.70;;;;;;4160167;28;20116;-44
2021/03/31 06:12:54;;;;;;;;;;;16.10;64.70;;;;;;4159334;28;20057;-44
2021/03/31 06:15:23;;;;;;;0.38;0.38;;;16.00;64.60;;;;;;4146867;28;20296;-49
2021/03/31 06:17:47;;;;;;;0.47;0.47;;;16.00;64.60;;;;;;4161738;28;20103;-43
2021/03/31 06:20:09;;;;;;;0.45;0.45;;;16.00;64.60;;;;;;4163007;28;20142;-43
2021/03/31 06:22:38;;;;;;;0.60;0.60;;;16.00;64.70;;;;;;4162859;28;20155;-43
2021/03/31 06:25:08;;;;;;;0.98;0.98;;;16.00;64.60;;;;;;4162595;28;20423;-44
2021/03/31 06:27:30;;;;;;;2.72;1.88;;;15.90;64.40;;;;;;4162709;28;20061;-44
2021/03/31 06:30:03;;;;;;;0.38;0.38;;;16.00;64.50;;;;;;4162394;28;20049;-44
2021/03/31 06:32:24;;;;;;;0.32;0.32;;;15.90;64.30;;;;;;4162710;28;20061;-46
2021/03/31 06:34:52;;;;;;;1.10;1.10;;;15.90;64.30;;;;;;4162735;28;20416;-50
2021/03/31 06:37:23;;;;;;;0.30;0.30;;;15.90;64.30;;;;;;4146310;28;20518;-49
2021/03/31 06:39:44;;;;;;;2.47;2.20;;;15.90;64.20;;;;;;4146259;28;20050;-43
2021/03/31 06:42:09;;;;;;;0.63;0.63;;;16.00;64.30;;;;;;4146304;28;20057;-45
2021/03/31 06:44:43;;;;;;;0.10;0.10;;;15.90;64.20;;;;;;4146270;28;20049;-44
2021/03/31 06:47:09;;;;;;;0.15;0.15;;;15.90;64.10;;;;;;4146245;28;20050;-43
2021/03/31 06:49:30;;;;;;;0.22;0.22;;;15.90;64.10;;;;;;4146238;28;20139;-43
2021/03/31 06:51:52;;;;;;;;;;;15.90;64.00;;;;;;4146671;28;20061;-43
2021/03/31 06:54:15;;;;;;;0.10;0.10;;;15.90;64.00;;;;;;4146352;28;19929;-44
2021/03/31 06:56:35;;;;;;;0.10;0.10;;;15.90;64.00;;;;;;4146267;28;20100;-44
2021/03/31 06:59:00;;;;;;;0.10;0.10;;;15.90;63.90;;;;;;4146904;28;20471;-44
2021/03/31 07:01:25;;;;;;;0.73;0.73;;;15.90;63.90;;;;;;4149577;28;20489;-44
2021/03/31 07:03:47;;;;;;;0.90;0.90;;;15.90;63.90;;;;;;4182188;28;20053;-44
2021/03/31 07:06:13;;;;;;;0.35;0.35;;;15.90;63.90;;;;;;4182323;28;20136;-45
2021/03/31 07:08:36;;;;;;;4.93;2.53;;;15.90;63.90;;;;;;4182279;28;20122;-42
2021/03/31 07:10:58;;;;;;;0.00;0.00;;;15.90;63.90;;;;;;4198523;28;20131;-43
2021/03/31 07:13:30;;;;;;;5.95;0.60;;;15.90;63.80;;;;;;4182217;28;20582;-42
2021/03/31 07:15:52;;;;;;;0.65;0.65;;;15.80;63.70;;;;;;4188734;28;20053;-43
2021/03/31 07:18:13;;;;;;;0.28;0.28;;;15.90;63.70;;;;;;4198676;28;20464;-42
2021/03/31 07:20:34;;;;;;;;;;;15.80;63.60;;;;;;4199005;28;20422;-43
2021/03/31 07:22:59;;;;;;;0.00;0.00;;;15.80;63.70;;;;;;4198587;28;19924;-43
2021/03/31 07:25:22;;;;;;;0.00;0.00;;;15.90;63.60;;;;;;4198455;28;20173;-43
2021/03/31 07:27:45;;;;;;;1.40;0.80;;;15.90;63.40;;;;;;4198471;28;20510;-43
2021/03/31 07:30:10;;;;;;;0.30;0.30;;;15.90;63.20;;;;;;4198374;28;20063;-43
2021/03/31 07:32:38;;;;;;;3.53;0.95;;;16.00;63.00;;;;;;4198361;28;20052;-44
2021/03/31 07:35:02;;;;;;;0.70;0.70;;;16.00;62.80;;;;;;4198421;28;20499;-43
2021/03/31 07:37:23;;;;;;;0.68;0.63;;;16.10;62.60;;;;;;4198196;28;20059;-47
2021/03/31 07:39:45;;;;;;;1.88;1.83;;;16.10;62.70;;;;;;4198258;28;20113;-43
2021/03/31 07:42:09;;;;;;;1.02;1.02;;;16.10;62.70;;;;;;4198264;28;20052;-44
2021/03/31 07:44:35;;;;;;;3.13;1.35;;;16.20;62.70;;;;;;4198316;28;20570;-45
2021/03/31 07:46:57;;;;;;;1.77;0.82;;;16.20;62.60;;;;;;4198162;28;20663;-43
2021/03/31 07:49:19;;;;;;;0.25;0.25;;;16.20;62.20;;;;;;4198174;28;20055;-44
2021/03/31 07:51:58;;;;;;;0.38;0.30;;;16.30;62.00;;;;;;4198049;28;20064;-43
2021/03/31 07:54:19;;;;;;;3.83;2.75;;;16.30;61.90;;;;;;4198172;28;20482;-42
2021/03/31 07:56:41;;;;;;;;;;;16.30;62.10;;;;;;4198564;28;20483;-43
2021/03/31 07:59:13;;;;;;;0.30;0.30;;;16.40;61.70;;;;;;4198009;28;19962;-43
2021/03/31 08:01:37;;;;;;;0.70;0.70;;;16.40;61.80;;;;;;4197780;28;20294;-43
2021/03/31 08:03:58;;;;;;;5.47;0.60;;;16.40;61.60;;;;;;4198004;28;20530;-43
2021/03/31 08:06:23;;;;;;;0.60;0.60;;;16.40;61.40;;;;;;4197884;28;20056;-43
2021/03/31 08:08:56;;;;;;;0.73;0.73;;;16.50;61.40;;;;;;4197869;28;20049;-45
2021/03/31 08:11:54;;;;;;;4.28;3.13;;;16.50;61.40;;;;;;4197689;28;20122;-43
2021/03/31 08:14:19;;;;;;;1.48;1.48;;;16.50;61.10;;;;;;4197862;28;20057;-44
2021/03/31 08:16:42;;;;;;;1.50;1.50;;;16.50;61.00;;;;;;4197943;28;20052;-43
2021/03/31 08:19:05;;;;;;;0.40;0.40;;;16.60;61.10;;;;;;4197495;28;20056;-44
2021/03/31 08:21:27;;;;;;;0.75;0.75;;;16.60;61.20;;;;;;4197690;28;20135;-42
2021/03/31 08:23:50;;;;;;;0.57;0.57;;;16.60;61.20;;;;;;4197543;28;20071;-44
2021/03/31 08:26:37;;;;;;;1.33;1.23;;;16.70;61.20;;;;;;4197564;28;20506;-44
2021/03/31 08:29:03;;;;;;;0.47;0.47;;;16.70;61.20;;;;;;4192644;28;20110;-44
2021/03/31 08:31:28;;;;;;;0.20;0.20;;;16.70;60.90;;;;;;4196758;28;20055;-43
2021/03/31 08:33:49;;;;;;;0.10;0.10;;;16.80;60.80;;;;;;4197298;28;20491;-44
2021/03/31 08:36:11;;;;;;;0.10;0.10;;;16.80;60.90;;;;;;4196932;28;20056;-43
2021/03/31 08:38:32;;;;;;;0.77;0.77;;;16.80;60.90;;;;;;4196887;28;20052;-44
2021/03/31 08:40:53;;;;;;;1.90;0.85;;;16.90;60.80;;;;;;4197348;28;20081;-45
2021/03/31 08:43:19;;;;;;;1.30;0.88;;;16.90;60.70;;;;;;4197071;28;20056;-44
2021/03/31 08:45:42;;;;;;;6.65;0.90;;;16.90;60.80;;;;;;4196184;28;20063;-45
2021/03/31 08:48:04;;;;;;;0.30;0.30;;;16.90;60.70;;;;;;4195836;28;20056;-46
2021/03/31 08:50:28;;;;;;;2.05;0.73;;;16.90;60.30;;;;;;4196831;28;20052;-48
2021/03/31 08:52:58;;;;;;;0.25;0.25;;;17.00;59.90;;;;;;4196363;28;20052;-49
2021/03/31 08:55:19;;;;;;;0.43;0.40;;;17.00;59.60;;;;;;4196269;28;20152;-48
2021/03/31 08:57:41;;;;;;;;;;;17.00;59.40;;;;;;4191343;28;20143;-43
2021/03/31 09:00:07;;;;;;;0.50;0.50;;;17.00;59.10;;;;;;4195408;28;19974;-43
2021/03/31 09:02:30;;;;;;;1.77;1.20;;;17.10;59.00;;;;;;4196508;28;20767;-44
2021/03/31 09:04:57;;;;;;;0.38;0.38;;;17.10;59.40;;;;;;4196666;28;20152;-44
2021/03/31 09:07:19;;;;;;;0.82;0.82;;;17.10;58.50;;;;;;4196420;28;20049;-48
2021/03/31 09:09:43;;;;;;;1.73;1.63;;;17.10;58.40;;;;;;4196425;28;20123;-44
2021/03/31 09:12:11;;;;;;;0.85;0.85;;;17.20;58.40;;;;;;4180394;28;20064;-48
2021/03/31 09:14:34;;;;;;;0.82;0.82;;;17.20;58.40;;;;;;4190007;28;20056;-50
2021/03/31 09:16:57;;;;;;;10.75;2.33;;;17.20;58.40;;;;;;4196680;28;20427;-48
2021/03/31 09:19:21;;;;;;;0.35;0.35;;;17.20;58.30;;;;;;4196516;28;20053;-49
2021/03/31 09:21:42;;;;;;;2.47;2.30;;;17.20;58.10;;;;;;4196185;28;20048;-47
2021/03/31 09:24:12;;;;;;;0.68;0.45;;;17.30;58.00;;;;;;4195515;28;20483;-48
2021/03/31 09:26:33;;;;;;;2.92;2.42;;;17.30;57.90;;;;;;4190463;28;20096;-43
2021/03/31 09:28:54;;;;;;;1.30;1.30;;;17.30;57.80;;;;;;4196617;28;20101;-45
2021/03/31 09:31:22;;;;;;;0.25;0.25;;;17.40;57.60;;;;;;4196546;28;20052;-48
2021/03/31 09:33:45;;;;;;;1.08;1.08;;;17.40;57.50;;;;;;4195911;28;20561;-47
2021/03/31 09:36:13;;;;;;;2.25;2.15;;;17.40;57.30;;;;;;4196273;28;20055;-49
2021/03/31 09:38:36;;;;;;;1.13;0.98;;;17.40;57.20;;;;;;4196078;28;20487;-43
2021/03/31 09:41:02;;;;;;;2.72;1.35;;;17.50;57.20;;;;;;4196307;28;20848;-44
2021/03/31 09:43:23;;;;;;;1.88;1.75;;;17.50;57.10;;;;;;4196281;28;20052;-43
2021/03/31 09:45:44;;;;;;;;;;;17.50;57.00;;;;;;4196738;28;20494;-44
2021/03/31 09:48:07;;;;;;;3.55;3.33;;;17.60;56.80;;;;;;4196255;28;20374;-44
2021/03/31 09:50:33;;;;;;;3.92;1.40;;;17.60;56.70;;;;;;4195783;28;20055;-46
2021/03/31 09:52:55;;;;;;;2.20;2.10;;;17.60;56.70;;;;;;4195571;28;20111;-44
2021/03/31 09:55:18;;;;;;;1.73;1.63;;;17.70;56.50;;;;;;4196156;28;20084;-43
2021/03/31 09:57:41;;;;;;;2.55;2.38;;;17.80;56.40;;;;;;4185468;28;20047;-44
2021/03/31 10:00:04;;;;;;;0.85;0.85;;;17.80;56.40;;;;;;4195058;28;20048;-43
2021/03/31 10:02:33;;;;;;;0.57;0.50;;;17.90;56.50;;;;;;4195358;28;20044;-43
2021/03/31 10:05:00;;;;;;;2.35;2.17;;;17.90;56.40;;;;;;4195700;28;20056;-44
2021/03/31 10:07:21;;;;;;;1.55;1.55;;;18.00;56.30;;;;;;4193397;28;20068;-44
2021/03/31 10:09:56;;;;;;;2.70;2.60;;;18.00;56.10;;;;;;4195617;28;20122;-43
2021/03/31 10:12:23;;;;;;;4.90;0.90;;;18.10;56.00;;;;;;4196023;28;20125;-44
2021/03/31 10:14:47;;;;;;;7.97;2.10;;;18.20;56.00;;;;;;4194215;28;20090;-43
2021/03/31 10:17:14;;;;;;;1.80;1.20;;;18.20;55.80;;;;;;4179446;28;20052;-45
2021/03/31 10:19:35;;;;;;;2.63;1.45;;;18.20;55.70;;;;;;4179355;28;20064;-46
2021/03/31 10:22:05;;;;;;;1.52;1.52;;;18.30;55.60;;;;;;4195076;28;20056;-43
2021/03/31 10:24:48;;;;;;;0.80;0.80;;;18.40;55.60;;;;;;4195364;28;20592;-45
2021/03/31 10:27:14;;;;;;;1.75;0.95;;;18.40;55.50;;;;;;4195799;28;20056;-44
2021/03/31 10:29:56;;;;;;;0.32;0.32;;;18.50;55.40;;;;;;4194707;28;20072;-43
2021/03/31 10:32:37;;;;;;;1.38;1.27;;;18.50;55.40;;;;;;4186907;28;20104;-44
2021/03/31 10:35:00;;;;;;;0.30;0.30;;;18.60;55.40;;;;;;4194865;28;20052;-43
2021/03/31 10:37:29;;;;;;;0.20;0.20;;;18.60;55.30;;;;;;4197049;28;20323;-44
2021/03/31 10:48:30;;;;;;;1.17;1.08;;;18.80;55.00;;;;;;4195383;28;20592;-44
2021/03/31 10:50:53;;;;;;;1.05;1.05;;;18.80;54.90;;;;;;4194279;28;20696;-43
2021/03/31 10:53:14;;;;;;;0.32;0.32;;;18.90;54.80;;;;;;4185809;28;20539;-43
2021/03/31 10:55:35;;;;;;;;;;;18.90;54.60;;;;;;4195225;28;20518;-44
2021/03/31 10:57:56;;;;;;;3.50;1.98;;;19.00;54.40;;;;;;4195261;28;19928;-47
2021/03/31 11:00:21;;;;;;;2.03;1.85;;;19.00;54.00;;;;;;4194380;28;20044;-45
2021/03/31 11:02:43;;;;;;;1.73;1.50;;;19.10;53.90;;;;;;4195167;28;20052;-45
2021/03/31 11:05:05;;;;;;;2.08;1.98;;;19.10;53.90;;;;;;4195513;28;20499;-44
2021/03/31 11:07:26;;;;;;;0.85;0.85;;;19.10;53.70;;;;;;4195314;28;20056;-45
2021/03/31 11:09:49;;;;;;;0.30;0.30;;;19.10;53.70;;;;;;4195482;28;20052;-50
2021/03/31 11:12:10;;;;;;;1.35;1.25;;;19.20;53.60;;;;;;4195219;28;20053;-47
2021/03/31 11:14:32;;;;;;;5.15;1.85;;;19.20;53.50;;;;;;4195413;28;20052;-47
2021/03/31 11:16:56;;;;;;;1.85;1.75;;;19.30;53.40;;;;;;4195235;28;20502;-45
2021/03/31 11:19:35;;;;;;;1.98;1.88;;;19.30;53.20;;;;;;4194994;28;20105;-44
2021/03/31 11:25:32;;;;;;;0.52;0.52;;;19.30;52.90;;;;;;4195166;28;20132;-49
2021/03/31 11:27:27;;;;;;;0.93;0.93;;;19.40;52.60;;;;;;4195465;28;20044;-46
2021/03/31 11:29:49;;;;;;;0.77;0.77;;;19.40;52.50;;;;;;4195051;28;20048;-46
2021/03/31 11:32:10;;;;;;;0.22;0.22;;;19.40;52.60;;;;;;4194986;28;20494;-43
2021/03/31 11:34:32;;;;;;;3.42;1.98;;;19.40;53.00;;;;;;4195215;28;20583;-45
2021/03/31 11:36:53;;;;;;;0.65;0.65;;;19.50;52.60;;;;;;4195173;28;20049;-44
2021/03/31 11:39:16;;;;;;;1.05;1.05;;;19.50;52.50;;;;;;4195261;28;20068;-44
2021/03/31 11:41:38;;;;;;;1.40;1.25;;;19.50;52.30;;;;;;4195182;28;20059;-45
2021/03/31 11:43:59;;;;;;;0.75;0.75;;;19.60;52.00;;;;;;4195321;28;20498;-45
2021/03/31 11:46:20;;;;;;;1.67;1.60;;;19.60;51.90;;;;;;4197702;28;20105;-44
2021/03/31 11:48:41;;;;;;;;;;;19.60;51.90;;;;;;4197704;28;20421;-44
2021/03/31 11:51:03;;;;;;;2.45;2.35;;;19.70;52.10;;;;;;4198157;28;20453;-44
2021/03/31 11:53:29;;;;;;;2.30;2.03;;;19.70;52.00;;;;;;4198300;28;20135;-46
2021/03/31 11:55:50;;;;;;;3.08;2.05;;;19.70;51.70;;;;;;4198205;28;20525;-44
2021/03/31 11:58:11;;;;;;;0.90;0.77;;;19.70;51.70;;;;;;4197481;28;20056;-44
2021/03/31 12:00:32;;;;;;;2.25;2.08;;;19.80;52.30;;;;;;4197938;28;20525;-44
2021/03/31 12:02:53;;;;;;;3.92;0.85;;;19.80;51.20;;;;;;4197954;28;20060;-45
2021/03/31 12:05:15;;;;;;;1.00;1.00;;;19.80;51.10;;;;;;4197763;28;20052;-44
2021/03/31 12:07:36;;;;;;;4.70;2.05;;;19.80;50.90;;;;;;4197814;28;20048;-44
2021/03/31 12:09:58;;;;;;;6.20;1.17;;;19.80;50.80;;;;;;4197631;28;20053;-49
2021/03/31 12:12:18;;;;;;;;;;;19.90;50.70;;;;;;4198323;28;20053;-48
2021/03/31 12:14:40;;;;;;;0.32;0.32;;;19.90;50.60;;;;;;4197648;28;19932;-46
2021/03/31 12:17:02;;;;;;;0.95;0.95;;;19.90;50.90;;;;;;4197683;28;20054;-47
2021/03/31 12:19:23;;;;;;;5.32;2.85;;;19.90;50.70;;;;;;4197771;28;20056;-46
2021/03/31 12:21:44;;;;;;;4.57;3.33;;;19.90;50.50;;;;;;4197838;28;20053;-47
2021/03/31 12:24:08;;;;;;;1.83;1.75;;;20.00;50.10;;;;;;4197373;28;20052;-45
2021/03/31 12:26:29;;;;;;;2.92;0.70;;;20.00;49.90;;;;;;4197555;28;20056;-48
2021/03/31 12:28:51;;;;;;;1.05;1.05;;;20.00;49.60;;;;;;4197509;28;20518;-44
2021/03/31 12:31:12;;;;;;;2.58;1.85;;;20.00;49.20;;;;;;4197377;28;20445;-47
2021/03/31 12:33:33;;;;;;;3.83;3.53;;;20.10;49.10;;;;;;4197644;28;20106;-45
2021/03/31 12:35:54;;;;;;;;;;;20.10;49.00;;;;;;4197899;28;20538;-46
2021/03/31 12:38:15;;;;;;;2.72;2.55;;;20.10;48.40;;;;;;4197485;28;20335;-45
2021/03/31 12:40:37;;;;;;;0.88;0.88;;;20.10;49.10;;;;;;4197329;28;20056;-44
2021/03/31 12:42:57;;;;;;;0.45;0.45;;;20.10;48.40;;;;;;4197347;28;20056;-46
2021/03/31 12:45:19;;;;;;;;;;;20.20;48.40;;;;;;4197845;28;20132;-44